sensor_id;sensor_type;location;lat;lon;timestamp;pressure;altitude;pressure_sealevel;temperature;humidity
56600;BME280;51832;48.152;11.530;2023-12-20T00:01:43;95449.09;;;8.61;51.24
56600;BME280;51832;48.152;11.530;2023-12-20T00:06:43;95436.16;;;8.66;51.71
56600;BME280;51832;48.152;11.530;2023-12-20T00:11:44;95435.19;;;8.99;51.37
56600;BME280;51832;48.152;11.530;2023-12-20T00:16:44;95418.84;;;8.97;52.42
56600;BME280;51832;48.152;11.530;2023-12-20T00:21:45;95426.19;;;9.13;52.82
56600;BME280;51832;48.152;11.530;2023-12-20T00:26:45;95423.13;;;9.16;51.33
56600;BME280;51832;48.152;11.530;2023-12-20T00:31:46;95433.59;;;9.22;51.00
56600;BME280;51832;48.152;11.530;2023-12-20T00:36:46;95429.31;;;9.53;50.08
56600;BME280;51832;48.152;11.530;2023-12-20T00:41:47;95418.25;;;9.19;49.04
56600;BME280;51832;48.152;11.530;2023-12-20T00:46:47;95401.97;;;9.36;48.01
56600;BME280;51832;48.152;11.530;2023-12-20T00:51:48;95414.41;;;9.22;47.19
56600;BME280;51832;48.152;11.530;2023-12-20T00:56:50;95398.28;;;9.43;46.46
56600;BME280;51832;48.152;11.530;2023-12-20T01:01:51;95396.66;;;9.67;46.28
56600;BME280;51832;48.152;11.530;2023-12-20T01:06:52;95388.75;;;9.24;47.08
56600;BME280;51832;48.152;11.530;2023-12-20T01:11:52;95375.94;;;9.34;47.18
56600;BME280;51832;48.152;11.530;2023-12-20T01:16:53;95369.13;;;9.51;47.02
56600;BME280;51832;48.152;11.530;2023-12-20T01:21:53;95375.22;;;9.45;47.01
56600;BME280;51832;48.152;11.530;2023-12-20T01:26:54;95367.53;;;9.25;47.96
56600;BME280;51832;48.152;11.530;2023-12-20T01:31:54;95359.81;;;9.06;49.62
56600;BME280;51832;48.152;11.530;2023-12-20T01:36:55;95347.47;;;9.31;49.56
56600;BME280;51832;48.152;11.530;2023-12-20T01:41:55;95350.38;;;9.23;50.40
56600;BME280;51832;48.152;11.530;2023-12-20T01:46:56;95347.94;;;9.28;50.61
56600;BME280;51832;48.152;11.530;2023-12-20T01:51:57;95339.63;;;9.49;50.31
56600;BME280;51832;48.152;11.530;2023-12-20T01:56:58;95326.28;;;9.08;51.30
56600;BME280;51832;48.152;11.530;2023-12-20T02:01:59;95325.75;;;9.24;50.52
56600;BME280;51832;48.152;11.530;2023-12-20T02:06:59;95307.16;;;9.44;50.09
56600;BME280;51832;48.152;11.530;2023-12-20T02:12:00;95293.72;;;9.15;50.57
56600;BME280;51832;48.152;11.530;2023-12-20T02:17:01;95286.00;;;9.57;49.50
56600;BME280;51832;48.152;11.530;2023-12-20T02:22:11;95296.56;;;9.32;50.48
56600;BME280;51832;48.152;11.530;2023-12-20T02:27:12;95308.91;;;9.32;51.45
56600;BME280;51832;48.152;11.530;2023-12-20T02:32:13;95283.44;;;9.32;53.01
56600;BME280;51832;48.152;11.530;2023-12-20T02:37:13;95274.63;;;9.45;53.28
56600;BME280;51832;48.152;11.530;2023-12-20T02:42:14;95247.78;;;9.79;53.43
56600;BME280;51832;48.152;11.530;2023-12-20T02:47:14;95257.84;;;9.46;54.73
56600;BME280;51832;48.152;11.530;2023-12-20T02:52:15;95260.13;;;9.42;55.72
56600;BME280;51832;48.152;11.530;2023-12-20T02:57:15;95262.16;;;9.58;56.11
56600;BME280;51832;48.152;11.530;2023-12-20T03:02:15;95264.66;;;9.53;56.79
56600;BME280;51832;48.152;11.530;2023-12-20T03:07:16;95274.25;;;9.23;58.38
56600;BME280;51832;48.152;11.530;2023-12-20T03:12:16;95268.19;;;9.22;59.76
56600;BME280;51832;48.152;11.530;2023-12-20T03:17:17;95277.34;;;9.38;60.47
56600;BME280;51832;48.152;11.530;2023-12-20T03:22:17;95263.56;;;9.43;61.91
56600;BME280;51832;48.152;11.530;2023-12-20T03:27:18;95274.47;;;9.58;62.20
56600;BME280;51832;48.152;11.530;2023-12-20T03:32:18;95277.91;;;9.58;63.53
56600;BME280;51832;48.152;11.530;2023-12-20T03:37:19;95287.03;;;9.38;65.64
56600;BME280;51832;48.152;11.530;2023-12-20T03:42:19;95304.59;;;8.94;69.33
56600;BME280;51832;48.152;11.530;2023-12-20T03:47:19;95341.88;;;9.03;70.00
56600;BME280;51832;48.152;11.530;2023-12-20T03:52:20;95326.53;;;8.75;73.92
56600;BME280;51832;48.152;11.530;2023-12-20T03:57:20;95327.53;;;8.49;78.30
56600;BME280;51832;48.152;11.530;2023-12-20T04:02:21;95320.00;;;8.59;79.58
56600;BME280;51832;48.152;11.530;2023-12-20T04:07:21;95314.41;;;8.80;79.92
56600;BME280;51832;48.152;11.530;2023-12-20T04:12:21;95322.44;;;8.85;81.24
56600;BME280;51832;48.152;11.530;2023-12-20T04:17:22;95336.56;;;8.60;84.72
56600;BME280;51832;48.152;11.530;2023-12-20T04:22:23;95334.09;;;8.33;87.71
56600;BME280;51832;48.152;11.530;2023-12-20T04:27:23;95336.59;;;8.08;90.57
56600;BME280;51832;48.152;11.530;2023-12-20T04:32:23;95326.41;;;7.87;93.17
56600;BME280;51832;48.152;11.530;2023-12-20T04:37:24;95325.69;;;8.81;95.66
56600;BME280;51832;48.152;11.530;2023-12-20T04:42:25;95323.38;;;9.16;92.60
56600;BME280;51832;48.152;11.530;2023-12-20T04:47:25;95317.50;;;8.71;93.20
56600;BME280;51832;48.152;11.530;2023-12-20T04:52:26;95340.91;;;9.22;90.58
56600;BME280;51832;48.152;11.530;2023-12-20T04:57:26;95358.16;;;8.86;91.80
56600;BME280;51832;48.152;11.530;2023-12-20T05:02:26;95361.69;;;8.99;95.63
56600;BME280;51832;48.152;11.530;2023-12-20T05:07:27;95365.19;;;8.10;98.37
56600;BME280;51832;48.152;11.530;2023-12-20T05:12:27;95361.72;;;7.71;100.00
56600;BME280;51832;48.152;11.530;2023-12-20T05:17:28;95359.53;;;7.62;100.00
56600;BME280;51832;48.152;11.530;2023-12-20T05:22:28;95376.66;;;7.58;100.00
56600;BME280;51832;48.152;11.530;2023-12-20T05:27:29;95400.03;;;7.46;100.00
56600;BME280;51832;48.152;11.530;2023-12-20T05:32:29;95398.81;;;7.55;100.00
56600;BME280;51832;48.152;11.530;2023-12-20T05:37:29;95401.44;;;7.48;100.00
56600;BME280;51832;48.152;11.530;2023-12-20T05:42:30;95401.63;;;6.88;100.00
56600;BME280;51832;48.152;11.530;2023-12-20T05:47:31;95403.09;;;7.23;100.00
56600;BME280;51832;48.152;11.530;2023-12-20T05:52:31;95426.78;;;6.75;100.00
56600;BME280;51832;48.152;11.530;2023-12-20T05:57:32;95407.28;;;7.04;100.00
56600;BME280;51832;48.152;11.530;2023-12-20T06:02:32;95414.72;;;7.01;100.00
56600;BME280;51832;48.152;11.530;2023-12-20T06:07:33;95466.19;;;6.67;100.00
56600;BME280;51832;48.152;11.530;2023-12-20T06:12:33;95443.25;;;6.69;100.00
56600;BME280;51832;48.152;11.530;2023-12-20T06:17:36;95446.63;;;6.50;100.00
56600;BME280;51832;48.152;11.530;2023-12-20T06:22:36;95439.66;;;6.84;100.00
56600;BME280;51832;48.152;11.530;2023-12-20T06:27:37;95477.88;;;6.30;100.00
56600;BME280;51832;48.152;11.530;2023-12-20T06:32:37;95452.66;;;6.57;100.00
56600;BME280;51832;48.152;11.530;2023-12-20T06:37:39;95450.53;;;6.81;100.00
56600;BME280;51832;48.152;11.530;2023-12-20T06:42:42;95484.16;;;6.42;100.00
56600;BME280;51832;48.152;11.530;2023-12-20T06:47:42;95483.53;;;6.27;100.00
56600;BME280;51832;48.152;11.530;2023-12-20T06:52:43;95486.31;;;6.26;100.00
56600;BME280;51832;48.152;11.530;2023-12-20T06:57:44;95507.88;;;6.34;100.00
56600;BME280;51832;48.152;11.530;2023-12-20T07:02:44;95477.56;;;6.47;100.00
56600;BME280;51832;48.152;11.530;2023-12-20T07:07:45;95521.56;;;6.36;100.00
56600;BME280;51832;48.152;11.530;2023-12-20T07:12:46;95509.06;;;6.32;100.00
56600;BME280;51832;48.152;11.530;2023-12-20T07:17:49;95525.91;;;6.23;100.00
56600;BME280;51832;48.152;11.530;2023-12-20T07:22:49;95527.09;;;6.61;100.00
56600;BME280;51832;48.152;11.530;2023-12-20T07:27:50;95526.22;;;6.41;100.00
56600;BME280;51832;48.152;11.530;2023-12-20T07:32:51;95553.00;;;6.56;100.00
56600;BME280;51832;48.152;11.530;2023-12-20T07:37:52;95539.09;;;6.49;100.00
56600;BME280;51832;48.152;11.530;2023-12-20T07:42:53;95541.78;;;6.62;100.00
56600;BME280;51832;48.152;11.530;2023-12-20T07:47:53;95543.19;;;6.24;100.00
56600;BME280;51832;48.152;11.530;2023-12-20T07:52:54;95544.22;;;6.29;100.00
56600;BME280;51832;48.152;11.530;2023-12-20T07:57:55;95548.72;;;6.42;100.00
56600;BME280;51832;48.152;11.530;2023-12-20T08:02:55;95576.75;;;6.55;100.00
56600;BME280;51832;48.152;11.530;2023-12-20T08:07:55;95565.59;;;6.39;100.00
56600;BME280;51832;48.152;11.530;2023-12-20T08:12:56;95587.81;;;6.29;100.00
56600;BME280;51832;48.152;11.530;2023-12-20T08:17:56;95581.25;;;6.05;100.00
56600;BME280;51832;48.152;11.530;2023-12-20T08:22:57;95591.88;;;6.03;100.00
56600;BME280;51832;48.152;11.530;2023-12-20T08:27:57;95573.31;;;6.20;100.00
56600;BME280;51832;48.152;11.530;2023-12-20T08:33:01;95572.19;;;6.01;100.00
56600;BME280;51832;48.152;11.530;2023-12-20T08:38:02;95579.50;;;6.47;100.00
56600;BME280;51832;48.152;11.530;2023-12-20T08:43:04;95576.06;;;6.39;100.00
56600;BME280;51832;48.152;11.530;2023-12-20T08:48:04;95584.66;;;6.33;100.00
56600;BME280;51832;48.152;11.530;2023-12-20T08:53:05;95580.22;;;6.34;100.00
56600;BME280;51832;48.152;11.530;2023-12-20T08:58:05;95572.16;;;6.29;100.00
56600;BME280;51832;48.152;11.530;2023-12-20T09:03:07;95575.88;;;6.13;100.00
56600;BME280;51832;48.152;11.530;2023-12-20T09:08:07;95599.41;;;6.48;100.00
56600;BME280;51832;48.152;11.530;2023-12-20T09:13:10;95582.00;;;6.27;100.00
56600;BME280;51832;48.152;11.530;2023-12-20T09:18:10;95581.00;;;6.62;100.00
56600;BME280;51832;48.152;11.530;2023-12-20T09:23:11;95570.59;;;6.34;100.00
56600;BME280;51832;48.152;11.530;2023-12-20T09:28:12;95579.13;;;6.50;100.00
56600;BME280;51832;48.152;11.530;2023-12-20T09:33:12;95610.97;;;6.04;100.00
56600;BME280;51832;48.152;11.530;2023-12-20T09:38:12;95577.00;;;6.32;100.00
56600;BME280;51832;48.152;11.530;2023-12-20T09:43:19;95590.31;;;6.43;100.00
56600;BME280;51832;48.152;11.530;2023-12-20T09:48:23;95584.16;;;6.51;100.00
56600;BME280;51832;48.152;11.530;2023-12-20T09:53:26;95577.78;;;6.26;100.00
56600;BME280;51832;48.152;11.530;2023-12-20T09:58:29;95576.00;;;6.67;100.00
56600;BME280;51832;48.152;11.530;2023-12-20T10:03:31;95561.16;;;6.81;100.00
56600;BME280;51832;48.152;11.530;2023-12-20T10:08:31;95557.13;;;6.78;100.00
56600;BME280;51832;48.152;11.530;2023-12-20T10:13:32;95563.72;;;6.68;100.00
56600;BME280;51832;48.152;11.530;2023-12-20T10:18:33;95556.72;;;6.75;100.00
56600;BME280;51832;48.152;11.530;2023-12-20T10:23:34;95552.72;;;6.79;100.00
56600;BME280;51832;48.152;11.530;2023-12-20T10:28:34;95549.06;;;6.73;100.00
56600;BME280;51832;48.152;11.530;2023-12-20T10:33:35;95554.31;;;6.80;100.00
56600;BME280;51832;48.152;11.530;2023-12-20T10:38:37;95547.84;;;7.50;100.00
56600;BME280;51832;48.152;11.530;2023-12-20T10:43:41;95556.13;;;6.80;100.00
56600;BME280;51832;48.152;11.530;2023-12-20T10:48:43;95543.31;;;6.98;100.00
56600;BME280;51832;48.152;11.530;2023-12-20T10:53:44;95547.78;;;7.17;100.00
56600;BME280;51832;48.152;11.530;2023-12-20T10:58:48;95537.06;;;6.92;100.00
56600;BME280;51832;48.152;11.530;2023-12-20T11:03:51;95542.09;;;7.00;100.00
56600;BME280;51832;48.152;11.530;2023-12-20T11:09:01;95530.31;;;7.37;100.00
56600;BME280;51832;48.152;11.530;2023-12-20T11:14:21;95528.84;;;6.95;100.00
56600;BME280;51832;48.152;11.530;2023-12-20T11:19:23;95530.84;;;7.00;100.00
56600;BME280;51832;48.152;11.530;2023-12-20T11:24:25;95520.81;;;7.10;100.00
56600;BME280;51832;48.152;11.530;2023-12-20T11:29:33;95511.38;;;7.22;100.00
56600;BME280;51832;48.152;11.530;2023-12-20T11:34:35;95510.50;;;6.89;100.00
56600;BME280;51832;48.152;11.530;2023-12-20T11:39:36;95500.09;;;7.22;100.00
56600;BME280;51832;48.152;11.530;2023-12-20T11:44:37;95494.88;;;7.48;100.00
56600;BME280;51832;48.152;11.530;2023-12-20T11:49:37;95502.91;;;7.27;100.00
56600;BME280;51832;48.152;11.530;2023-12-20T11:54:38;95507.53;;;7.25;100.00
56600;BME280;51832;48.152;11.530;2023-12-20T11:59:39;95476.53;;;7.41;100.00
56600;BME280;51832;48.152;11.530;2023-12-20T12:04:42;95468.69;;;7.55;100.00
56600;BME280;51832;48.152;11.530;2023-12-20T12:09:43;95483.22;;;7.51;100.00
56600;BME280;51832;48.152;11.530;2023-12-20T12:14:44;95489.44;;;7.69;100.00
56600;BME280;51832;48.152;11.530;2023-12-20T12:19:44;95470.91;;;7.44;100.00
56600;BME280;51832;48.152;11.530;2023-12-20T12:24:48;95467.50;;;7.64;99.32
56600;BME280;51832;48.152;11.530;2023-12-20T12:30:03;95469.72;;;7.47;100.00
56600;BME280;51832;48.152;11.530;2023-12-20T12:35:04;95461.22;;;7.71;98.51
56600;BME280;51832;48.152;11.530;2023-12-20T12:40:16;95458.84;;;7.37;99.85
56600;BME280;51832;48.152;11.530;2023-12-20T12:45:17;95446.34;;;7.45;99.69
56600;BME280;51832;48.152;11.530;2023-12-20T12:50:17;95447.94;;;7.40;100.00
56600;BME280;51832;48.152;11.530;2023-12-20T12:55:18;95455.00;;;7.53;99.76
56600;BME280;51832;48.152;11.530;2023-12-20T13:00:18;95470.50;;;7.54;100.00
56600;BME280;51832;48.152;11.530;2023-12-20T13:05:19;95463.66;;;7.53;100.00
56600;BME280;51832;48.152;11.530;2023-12-20T13:10:20;95485.59;;;7.06;100.00
56600;BME280;51832;48.152;11.530;2023-12-20T13:15:20;95471.31;;;7.28;100.00
56600;BME280;51832;48.152;11.530;2023-12-20T13:20:21;95475.31;;;6.37;100.00
56600;BME280;51832;48.152;11.530;2023-12-20T13:25:22;95485.16;;;6.35;100.00
56600;BME280;51832;48.152;11.530;2023-12-20T13:30:23;95482.97;;;6.45;100.00
56600;BME280;51832;48.152;11.530;2023-12-20T13:35:24;95485.88;;;6.70;99.54
56600;BME280;51832;48.152;11.530;2023-12-20T13:40:24;95497.75;;;6.72;97.61
56600;BME280;51832;48.152;11.530;2023-12-20T13:45:25;95483.28;;;6.76;97.70
56600;BME280;51832;48.152;11.530;2023-12-20T13:50:25;95491.94;;;6.84;96.92
56600;BME280;51832;48.152;11.530;2023-12-20T13:55:26;95507.09;;;6.95;96.38
56600;BME280;51832;48.152;11.530;2023-12-20T14:00:27;95506.88;;;6.90;95.78
56600;BME280;51832;48.152;11.530;2023-12-20T14:05:28;95509.66;;;6.34;97.28
56600;BME280;51832;48.152;11.530;2023-12-20T14:10:28;95516.16;;;6.45;96.36
56600;BME280;51832;48.152;11.530;2023-12-20T14:15:28;95513.09;;;6.34;96.36
56600;BME280;51832;48.152;11.530;2023-12-20T14:20:29;95510.38;;;6.56;95.63
56600;BME280;51832;48.152;11.530;2023-12-20T14:25:29;95526.25;;;6.54;95.19
56600;BME280;51832;48.152;11.530;2023-12-20T14:30:31;95527.22;;;6.47;94.60
56600;BME280;51832;48.152;11.530;2023-12-20T14:35:32;95531.63;;;6.39;95.21
56600;BME280;51832;48.152;11.530;2023-12-20T14:40:33;95516.34;;;6.43;94.62
56600;BME280;51832;48.152;11.530;2023-12-20T14:45:33;95532.38;;;6.33;95.43
56600;BME280;51832;48.152;11.530;2023-12-20T14:50:34;95523.78;;;6.39;95.28
56600;BME280;51832;48.152;11.530;2023-12-20T14:55:34;95521.84;;;6.61;94.41
56600;BME280;51832;48.152;11.530;2023-12-20T15:00:35;95527.38;;;6.86;93.18
56600;BME280;51832;48.152;11.530;2023-12-20T15:05:35;95523.56;;;6.89;92.42
56600;BME280;51832;48.152;11.530;2023-12-20T15:10:36;95533.78;;;6.77;93.04
56600;BME280;51832;48.152;11.530;2023-12-20T15:15:37;95533.03;;;6.42;93.24
56600;BME280;51832;48.152;11.530;2023-12-20T15:20:38;95534.97;;;6.27;93.08
56600;BME280;51832;48.152;11.530;2023-12-20T15:25:38;95535.03;;;6.40;90.45
56600;BME280;51832;48.152;11.530;2023-12-20T15:30:39;95520.63;;;6.57;89.27
56600;BME280;51832;48.152;11.530;2023-12-20T15:35:39;95524.78;;;6.45;88.33
56600;BME280;51832;48.152;11.530;2023-12-20T15:40:40;95520.28;;;6.73;87.50
56600;BME280;51832;48.152;11.530;2023-12-20T15:45:40;95508.78;;;6.20;88.51
56600;BME280;51832;48.152;11.530;2023-12-20T15:50:41;95520.78;;;6.08;88.11
56600;BME280;51832;48.152;11.530;2023-12-20T15:55:41;95499.50;;;6.11;88.60
56600;BME280;51832;48.152;11.530;2023-12-20T16:00:42;95512.81;;;5.88;88.72
56600;BME280;51832;48.152;11.530;2023-12-20T16:05:42;95515.19;;;6.11;88.08
56600;BME280;51832;48.152;11.530;2023-12-20T16:10:43;95516.91;;;5.76;89.07
56600;BME280;51832;48.152;11.530;2023-12-20T16:15:43;95531.78;;;6.03;88.08
56600;BME280;51832;48.152;11.530;2023-12-20T16:20:44;95522.00;;;5.84;89.04
56600;BME280;51832;48.152;11.530;2023-12-20T16:25:44;95519.72;;;6.02;88.19
56600;BME280;51832;48.152;11.530;2023-12-20T16:30:44;95533.72;;;5.67;89.37
56600;BME280;51832;48.152;11.530;2023-12-20T16:35:45;95554.50;;;5.54;88.46
56600;BME280;51832;48.152;11.530;2023-12-20T16:40:45;95551.56;;;5.63;88.18
56600;BME280;51832;48.152;11.530;2023-12-20T16:45:46;95569.66;;;5.65;86.92
56600;BME280;51832;48.152;11.530;2023-12-20T16:50:46;95556.41;;;5.66;87.14
56600;BME280;51832;48.152;11.530;2023-12-20T16:55:47;95564.31;;;5.73;87.18
56600;BME280;51832;48.152;11.530;2023-12-20T17:00:47;95574.66;;;5.60;87.36
56600;BME280;51832;48.152;11.530;2023-12-20T17:05:48;95581.16;;;5.49;87.44
56600;BME280;51832;48.152;11.530;2023-12-20T17:10:48;95553.75;;;5.60;87.89
56600;BME280;51832;48.152;11.530;2023-12-20T17:15:49;95560.22;;;5.21;89.70
56600;BME280;51832;48.152;11.530;2023-12-20T17:20:49;95575.84;;;5.21;89.76
56600;BME280;51832;48.152;11.530;2023-12-20T17:25:50;95596.19;;;5.26;89.04
56600;BME280;51832;48.152;11.530;2023-12-20T17:30:50;95569.28;;;5.25;88.27
56600;BME280;51832;48.152;11.530;2023-12-20T17:35:51;95566.22;;;5.64;84.96
56600;BME280;51832;48.152;11.530;2023-12-20T17:40:52;95561.59;;;5.39;85.43
56600;BME280;51832;48.152;11.530;2023-12-20T17:45:52;95571.84;;;5.40;84.59
56600;BME280;51832;48.152;11.530;2023-12-20T17:50:53;95554.97;;;5.64;83.13
56600;BME280;51832;48.152;11.530;2023-12-20T17:55:53;95570.16;;;5.54;83.47
56600;BME280;51832;48.152;11.530;2023-12-20T18:00:54;95576.75;;;5.71;83.20
56600;BME280;51832;48.152;11.530;2023-12-20T18:05:54;95554.78;;;5.65;83.14
56600;BME280;51832;48.152;11.530;2023-12-20T18:10:55;95571.34;;;5.51;83.23
56600;BME280;51832;48.152;11.530;2023-12-20T18:15:56;95559.53;;;5.55;81.87
56600;BME280;51832;48.152;11.530;2023-12-20T18:20:56;95557.78;;;5.62;81.95
56600;BME280;51832;48.152;11.530;2023-12-20T18:25:57;95560.13;;;5.79;79.91
56600;BME280;51832;48.152;11.530;2023-12-20T18:30:58;95578.13;;;5.46;80.17
56600;BME280;51832;48.152;11.530;2023-12-20T18:35:59;95577.25;;;5.88;79.06
56600;BME280;51832;48.152;11.530;2023-12-20T18:41:00;95595.88;;;5.78;78.86
56600;BME280;51832;48.152;11.530;2023-12-20T18:46:00;95574.84;;;5.86;78.49
56600;BME280;51832;48.152;11.530;2023-12-20T18:51:02;95599.84;;;5.74;78.23
56600;BME280;51832;48.152;11.530;2023-12-20T18:56:03;95591.78;;;5.69;78.69
56600;BME280;51832;48.152;11.530;2023-12-20T19:01:04;95589.25;;;5.54;79.16
56600;BME280;51832;48.152;11.530;2023-12-20T19:06:04;95582.59;;;5.73;78.90
56600;BME280;51832;48.152;11.530;2023-12-20T19:11:05;95564.06;;;5.68;78.08
56600;BME280;51832;48.152;11.530;2023-12-20T19:16:06;95559.38;;;5.63;78.69
56600;BME280;51832;48.152;11.530;2023-12-20T19:21:06;95571.34;;;5.51;79.59
56600;BME280;51832;48.152;11.530;2023-12-20T19:26:09;95565.81;;;5.40;80.17
56600;BME280;51832;48.152;11.530;2023-12-20T19:31:10;95556.84;;;5.70;79.39
56600;BME280;51832;48.152;11.530;2023-12-20T19:36:11;95554.94;;;5.57;80.00
56600;BME280;51832;48.152;11.530;2023-12-20T19:41:12;95553.09;;;5.79;79.22
56600;BME280;51832;48.152;11.530;2023-12-20T19:46:12;95561.81;;;5.65;79.54
56600;BME280;51832;48.152;11.530;2023-12-20T19:51:13;95561.38;;;5.83;79.37
56600;BME280;51832;48.152;11.530;2023-12-20T19:56:15;95563.66;;;5.92;79.05
56600;BME280;51832;48.152;11.530;2023-12-20T20:01:15;95564.34;;;5.80;79.12
56600;BME280;51832;48.152;11.530;2023-12-20T20:06:16;95536.03;;;5.55;80.16
56600;BME280;51832;48.152;11.530;2023-12-20T20:11:19;95523.09;;;5.68;79.89
56600;BME280;51832;48.152;11.530;2023-12-20T20:16:20;95526.75;;;6.02;78.59
56600;BME280;51832;48.152;11.530;2023-12-20T20:21:20;95522.13;;;5.76;80.23
56600;BME280;51832;48.152;11.530;2023-12-20T20:26:21;95545.19;;;5.94;79.72
56600;BME280;51832;48.152;11.530;2023-12-20T20:31:21;95527.63;;;5.88;81.14
56600;BME280;51832;48.152;11.530;2023-12-20T20:36:22;95515.47;;;5.95;81.14
56600;BME280;51832;48.152;11.530;2023-12-20T20:41:22;95518.22;;;5.87;81.61
56600;BME280;51832;48.152;11.530;2023-12-20T20:46:23;95512.91;;;6.01;80.37
56600;BME280;51832;48.152;11.530;2023-12-20T20:51:26;95523.94;;;5.97;80.50
56600;BME280;51832;48.152;11.530;2023-12-20T20:56:27;95506.09;;;5.79;80.02
56600;BME280;51832;48.152;11.530;2023-12-20T21:01:28;95509.28;;;5.75;80.04
56600;BME280;51832;48.152;11.530;2023-12-20T21:06:31;95513.41;;;5.62;80.86
56600;BME280;51832;48.152;11.530;2023-12-20T21:11:33;95522.66;;;5.65;82.06
56600;BME280;51832;48.152;11.530;2023-12-20T21:16:34;95504.16;;;5.60;82.95
56600;BME280;51832;48.152;11.530;2023-12-20T21:21:35;95519.94;;;5.52;82.92
56600;BME280;51832;48.152;11.530;2023-12-20T21:26:35;95513.06;;;5.44;83.58
56600;BME280;51832;48.152;11.530;2023-12-20T21:31:36;95493.13;;;5.36;85.00
56600;BME280;51832;48.152;11.530;2023-12-20T21:36:36;95518.06;;;5.18;86.31
56600;BME280;51832;48.152;11.530;2023-12-20T21:41:37;95485.06;;;5.31;86.35
56600;BME280;51832;48.152;11.530;2023-12-20T21:46:38;95472.50;;;5.69;84.85
56600;BME280;51832;48.152;11.530;2023-12-20T21:51:40;95442.34;;;5.32;86.71
56600;BME280;51832;48.152;11.530;2023-12-20T21:56:41;95444.78;;;5.13;88.41
56600;BME280;51832;48.152;11.530;2023-12-20T22:01:42;95436.91;;;5.34;87.56
56600;BME280;51832;48.152;11.530;2023-12-20T22:06:43;95487.00;;;5.02;88.81
56600;BME280;51832;48.152;11.530;2023-12-20T22:11:43;95483.16;;;5.19;87.70
56600;BME280;51832;48.152;11.530;2023-12-20T22:16:44;95447.78;;;5.65;85.74
56600;BME280;51832;48.152;11.530;2023-12-20T22:21:45;95479.03;;;5.10;88.59
56600;BME280;51832;48.152;11.530;2023-12-20T22:26:45;95426.25;;;5.29;87.47
56600;BME280;51832;48.152;11.530;2023-12-20T22:31:45;95449.13;;;5.33;87.02
56600;BME280;51832;48.152;11.530;2023-12-20T22:36:46;95452.25;;;5.22;87.64
56600;BME280;51832;48.152;11.530;2023-12-20T22:41:46;95436.72;;;5.35;86.64
56600;BME280;51832;48.152;11.530;2023-12-20T22:46:47;95402.00;;;5.35;85.98
56600;BME280;51832;48.152;11.530;2023-12-20T22:51:49;95449.94;;;5.34;85.38
56600;BME280;51832;48.152;11.530;2023-12-20T22:56:50;95406.72;;;5.18;86.25
56600;BME280;51832;48.152;11.530;2023-12-20T23:01:54;95373.47;;;5.33;85.17
56600;BME280;51832;48.152;11.530;2023-12-20T23:06:54;95359.94;;;5.51;83.48
56600;BME280;51832;48.152;11.530;2023-12-20T23:11:55;95345.47;;;5.49;82.73
56600;BME280;51832;48.152;11.530;2023-12-20T23:16:55;95366.09;;;5.37;82.62
56600;BME280;51832;48.152;11.530;2023-12-20T23:21:56;95376.72;;;5.70;80.85
56600;BME280;51832;48.152;11.530;2023-12-20T23:26:56;95358.56;;;5.90;79.91
56600;BME280;51832;48.152;11.530;2023-12-20T23:31:57;95379.53;;;5.68;80.11
56600;BME280;51832;48.152;11.530;2023-12-20T23:36:57;95330.50;;;5.64;80.43
56600;BME280;51832;48.152;11.530;2023-12-20T23:41:58;95314.09;;;5.77;78.92
56600;BME280;51832;48.152;11.530;2023-12-20T23:46:58;95304.84;;;5.74;78.83
56600;BME280;51832;48.152;11.530;2023-12-20T23:51:59;95293.09;;;5.50;79.70
56600;BME280;51832;48.152;11.530;2023-12-20T23:56:59;95315.28;;;5.74;78.79
